sensor_id;sensor_type;location;lat;lon;timestamp;temperature;humidity
23723;DHT22;12042;52.136;5.584;2022-09-09T05:17:33;14.70;99.90
23723;DHT22;12042;52.136;5.584;2022-09-09T05:19:59;14.70;99.90
23723;DHT22;12042;52.136;5.584;2022-09-09T05:22:24;14.60;99.90
23723;DHT22;12042;52.136;5.584;2022-09-09T05:24:50;14.70;99.90
23723;DHT22;12042;52.136;5.584;2022-09-09T05:27:17;14.70;99.90
23723;DHT22;12042;52.136;5.584;2022-09-09T05:29:45;14.70;99.90
23723;DHT22;12042;52.136;5.584;2022-09-09T05:32:11;14.70;99.90
23723;DHT22;12042;52.136;5.584;2022-09-09T05:34:37;14.70;99.90
23723;DHT22;12042;52.136;5.584;2022-09-09T05:37:03;14.70;99.90
23723;DHT22;12042;52.136;5.584;2022-09-09T05:39:29;14.70;99.90
23723;DHT22;12042;52.136;5.584;2022-09-09T05:41:55;14.80;99.90
23723;DHT22;12042;52.136;5.584;2022-09-09T05:44:21;14.80;99.90
23723;DHT22;12042;52.136;5.584;2022-09-09T05:46:48;14.70;99.90
23723;DHT22;12042;52.136;5.584;2022-09-09T05:49:14;14.80;99.90
23723;DHT22;12042;52.136;5.584;2022-09-09T05:51:41;14.80;99.90
23723;DHT22;12042;52.136;5.584;2022-09-09T05:54:08;14.80;99.90
23723;DHT22;12042;52.136;5.584;2022-09-09T05:56:33;14.80;99.90
23723;DHT22;12042;52.136;5.584;2022-09-09T05:58:59;14.80;99.90
23723;DHT22;12042;52.136;5.584;2022-09-09T06:01:28;14.90;99.90
23723;DHT22;12042;52.136;5.584;2022-09-09T06:03:54;14.90;99.90
23723;DHT22;12042;52.136;5.584;2022-09-09T06:06:23;14.90;99.90
23723;DHT22;12042;52.136;5.584;2022-09-09T06:08:54;15.00;99.90
23723;DHT22;12042;52.136;5.584;2022-09-09T06:11:23;15.00;99.90
23723;DHT22;12042;52.136;5.584;2022-09-09T06:13:49;15.10;99.90
23723;DHT22;12042;52.136;5.584;2022-09-09T06:16:20;15.20;99.90
23723;DHT22;12042;52.136;5.584;2022-09-09T06:18:48;15.20;99.90
23723;DHT22;12042;52.136;5.584;2022-09-09T06:21:16;15.30;99.90
23723;DHT22;12042;52.136;5.584;2022-09-09T06:23:43;15.30;99.90
23723;DHT22;12042;52.136;5.584;2022-09-09T06:26:15;15.40;99.90
23723;DHT22;12042;52.136;5.584;2022-09-09T06:28:42;15.40;99.90
23723;DHT22;12042;52.136;5.584;2022-09-09T06:31:10;15.40;99.90
23723;DHT22;12042;52.136;5.584;2022-09-09T06:33:41;15.50;99.90
23723;DHT22;12042;52.136;5.584;2022-09-09T06:36:24;15.60;99.90
23723;DHT22;12042;52.136;5.584;2022-09-09T06:38:50;15.60;99.90
23723;DHT22;12042;52.136;5.584;2022-09-09T06:41:17;15.60;99.90
23723;DHT22;12042;52.136;5.584;2022-09-09T06:43:44;15.60;99.90
23723;DHT22;12042;52.136;5.584;2022-09-09T06:46:21;15.60;99.90
23723;DHT22;12042;52.136;5.584;2022-09-09T06:48:47;15.70;99.90
23723;DHT22;12042;52.136;5.584;2022-09-09T06:51:15;15.70;99.90
23723;DHT22;12042;52.136;5.584;2022-09-09T06:53:42;15.80;99.90
23723;DHT22;12042;52.136;5.584;2022-09-09T06:58:37;15.90;99.90
23723;DHT22;12042;52.136;5.584;2022-09-09T07:01:06;15.90;99.90
23723;DHT22;12042;52.136;5.584;2022-09-09T07:03:32;15.90;99.90
23723;DHT22;12042;52.136;5.584;2022-09-09T07:05:59;15.90;99.90
23723;DHT22;12042;52.136;5.584;2022-09-09T07:08:25;16.00;99.90
23723;DHT22;12042;52.136;5.584;2022-09-09T07:10:51;16.00;99.90
23723;DHT22;12042;52.136;5.584;2022-09-09T07:13:23;16.00;99.90
23723;DHT22;12042;52.136;5.584;2022-09-09T07:15:50;16.00;99.90
23723;DHT22;12042;52.136;5.584;2022-09-09T07:18:16;16.10;99.90
23723;DHT22;12042;52.136;5.584;2022-09-09T07:20:42;16.20;99.90
23723;DHT22;12042;52.136;5.584;2022-09-09T07:23:07;16.20;99.90
23723;DHT22;12042;52.136;5.584;2022-09-09T07:25:33;16.20;99.90
23723;DHT22;12042;52.136;5.584;2022-09-09T07:27:58;16.30;99.90
23723;DHT22;12042;52.136;5.584;2022-09-09T07:30:24;16.40;99.90
23723;DHT22;12042;52.136;5.584;2022-09-09T07:32:51;16.50;99.90
23723;DHT22;12042;52.136;5.584;2022-09-09T07:35:17;16.60;99.90
23723;DHT22;12042;52.136;5.584;2022-09-09T07:37:42;16.70;99.90
23723;DHT22;12042;52.136;5.584;2022-09-09T07:40:09;16.80;99.90
23723;DHT22;12042;52.136;5.584;2022-09-09T07:42:35;16.80;99.90
23723;DHT22;12042;52.136;5.584;2022-09-09T07:45:03;16.80;99.90
23723;DHT22;12042;52.136;5.584;2022-09-09T07:47:29;16.80;99.90
23723;DHT22;12042;52.136;5.584;2022-09-09T07:49:55;16.80;99.90
23723;DHT22;12042;52.136;5.584;2022-09-09T07:52:21;16.80;99.90
23723;DHT22;12042;52.136;5.584;2022-09-09T07:54:47;16.80;99.90
23723;DHT22;12042;52.136;5.584;2022-09-09T07:57:12;16.90;99.90
23723;DHT22;12042;52.136;5.584;2022-09-09T07:59:38;16.90;99.90
23723;DHT22;12042;52.136;5.584;2022-09-09T08:02:04;16.90;99.90
23723;DHT22;12042;52.136;5.584;2022-09-09T08:04:30;16.90;99.90
23723;DHT22;12042;52.136;5.584;2022-09-09T08:06:58;16.90;99.90
23723;DHT22;12042;52.136;5.584;2022-09-09T08:09:24;17.00;99.90
23723;DHT22;12042;52.136;5.584;2022-09-09T08:11:52;17.00;99.90
23723;DHT22;12042;52.136;5.584;2022-09-09T08:14:18;17.00;99.90
23723;DHT22;12042;52.136;5.584;2022-09-09T08:16:47;17.00;99.90
23723;DHT22;12042;52.136;5.584;2022-09-09T08:19:13;16.90;99.90
23723;DHT22;12042;52.136;5.584;2022-09-09T08:21:42;16.90;99.90
23723;DHT22;12042;52.136;5.584;2022-09-09T08:24:09;16.90;99.90
23723;DHT22;12042;52.136;5.584;2022-09-09T08:26:41;16.90;99.90
23723;DHT22;12042;52.136;5.584;2022-09-09T08:29:08;16.90;99.90
23723;DHT22;12042;52.136;5.584;2022-09-09T08:31:40;16.90;99.90
23723;DHT22;12042;52.136;5.584;2022-09-09T08:34:08;17.00;99.90
23723;DHT22;12042;52.136;5.584;2022-09-09T08:36:36;17.10;99.90
23723;DHT22;12042;52.136;5.584;2022-09-09T08:39:05;17.10;99.90
23723;DHT22;12042;52.136;5.584;2022-09-09T08:44:24;17.10;99.90
23723;DHT22;12042;52.136;5.584;2022-09-09T08:47:05;17.10;99.90
23723;DHT22;12042;52.136;5.584;2022-09-09T08:49:40;17.10;99.90
23723;DHT22;12042;52.136;5.584;2022-09-09T08:52:23;17.10;99.90
23723;DHT22;12042;52.136;5.584;2022-09-09T08:54:51;17.10;99.90
23723;DHT22;12042;52.136;5.584;2022-09-09T08:57:21;17.10;99.90
23723;DHT22;12042;52.136;5.584;2022-09-09T08:59:48;17.10;99.90
23723;DHT22;12042;52.136;5.584;2022-09-09T09:08:10;17.10;99.90
23723;DHT22;12042;52.136;5.584;2022-09-09T09:10:46;17.10;99.90
23723;DHT22;12042;52.136;5.584;2022-09-09T09:13:20;17.10;99.90
23723;DHT22;12042;52.136;5.584;2022-09-09T09:16:00;17.20;99.90
23723;DHT22;12042;52.136;5.584;2022-09-09T09:18:27;17.20;99.90
23723;DHT22;12042;52.136;5.584;2022-09-09T09:21:04;17.20;99.90
23723;DHT22;12042;52.136;5.584;2022-09-09T09:23:42;17.20;99.90
23723;DHT22;12042;52.136;5.584;2022-09-09T09:26:10;17.30;99.90
23723;DHT22;12042;52.136;5.584;2022-09-09T09:28:39;17.30;99.90
23723;DHT22;12042;52.136;5.584;2022-09-09T09:31:08;17.30;99.90
23723;DHT22;12042;52.136;5.584;2022-09-09T09:36:12;17.30;99.90
23723;DHT22;12042;52.136;5.584;2022-09-09T09:38:50;17.20;99.90
23723;DHT22;12042;52.136;5.584;2022-09-09T09:41:16;17.30;99.90
23723;DHT22;12042;52.136;5.584;2022-09-09T09:43:53;17.40;99.90
23723;DHT22;12042;52.136;5.584;2022-09-09T09:46:21;17.40;99.90
23723;DHT22;12042;52.136;5.584;2022-09-09T09:49:02;17.40;99.90
23723;DHT22;12042;52.136;5.584;2022-09-09T09:51:30;17.40;99.90
23723;DHT22;12042;52.136;5.584;2022-09-09T09:54:22;17.40;99.90
23723;DHT22;12042;52.136;5.584;2022-09-09T09:56:50;17.40;99.90
23723;DHT22;12042;52.136;5.584;2022-09-09T09:59:32;17.50;99.90
23723;DHT22;12042;52.136;5.584;2022-09-09T10:02:17;17.50;99.90
23723;DHT22;12042;52.136;5.584;2022-09-09T10:04:43;17.50;99.90
23723;DHT22;12042;52.136;5.584;2022-09-09T10:07:21;17.60;99.90
23723;DHT22;12042;52.136;5.584;2022-09-09T10:09:55;17.60;99.90
23723;DHT22;12042;52.136;5.584;2022-09-09T10:15:36;17.60;99.90
23723;DHT22;12042;52.136;5.584;2022-09-09T10:23:44;17.70;99.90
23723;DHT22;12042;52.136;5.584;2022-09-09T10:26:42;17.60;99.90
23723;DHT22;12042;52.136;5.584;2022-09-09T10:32:24;17.60;99.90
23723;DHT22;12042;52.136;5.584;2022-09-09T10:37:59;17.50;99.90
23723;DHT22;12042;52.136;5.584;2022-09-09T10:40:38;17.50;99.90
23723;DHT22;12042;52.136;5.584;2022-09-09T10:43:26;17.60;99.90
23723;DHT22;12042;52.136;5.584;2022-09-09T10:46:27;17.70;99.90
23723;DHT22;12042;52.136;5.584;2022-09-09T10:54:59;17.40;99.90
23723;DHT22;12042;52.136;5.584;2022-09-09T10:57:41;17.20;99.90
23723;DHT22;12042;52.136;5.584;2022-09-09T11:00:24;17.10;99.90
23723;DHT22;12042;52.136;5.584;2022-09-09T11:02:56;17.10;99.90
23723;DHT22;12042;52.136;5.584;2022-09-09T11:05:31;17.10;99.90
23723;DHT22;12042;52.136;5.584;2022-09-09T11:08:04;17.00;99.90
23723;DHT22;12042;52.136;5.584;2022-09-09T11:16:38;17.10;99.90
23723;DHT22;12042;52.136;5.584;2022-09-09T11:19:30;17.20;99.90
23723;DHT22;12042;52.136;5.584;2022-09-09T11:22:22;17.40;99.90
23723;DHT22;12042;52.136;5.584;2022-09-09T11:24:53;17.50;99.90
23723;DHT22;12042;52.136;5.584;2022-09-09T11:27:31;17.60;99.90
23723;DHT22;12042;52.136;5.584;2022-09-09T11:30:05;18.00;99.90
23723;DHT22;12042;52.136;5.584;2022-09-09T11:41:01;17.80;99.90
23723;DHT22;12042;52.136;5.584;2022-09-09T11:43:31;17.80;99.90
23723;DHT22;12042;52.136;5.584;2022-09-09T11:46:01;17.90;99.90
23723;DHT22;12042;52.136;5.584;2022-09-09T11:48:42;18.00;99.90
23723;DHT22;12042;52.136;5.584;2022-09-09T11:53:59;18.50;99.90
23723;DHT22;12042;52.136;5.584;2022-09-09T11:56:34;18.50;99.90
23723;DHT22;12042;52.136;5.584;2022-09-09T11:59:28;18.40;99.90
23723;DHT22;12042;52.136;5.584;2022-09-09T12:19:40;18.10;99.90
23723;DHT22;12042;52.136;5.584;2022-09-09T12:22:30;18.10;99.90
23723;DHT22;12042;52.136;5.584;2022-09-09T12:27:40;18.10;99.90
23723;DHT22;12042;52.136;5.584;2022-09-09T12:30:14;18.10;99.90
23723;DHT22;12042;52.136;5.584;2022-09-09T12:32:40;18.10;99.90
23723;DHT22;12042;52.136;5.584;2022-09-09T12:35:29;18.10;99.90
23723;DHT22;12042;52.136;5.584;2022-09-09T12:37:59;18.00;99.90
23723;DHT22;12042;52.136;5.584;2022-09-09T12:40:29;17.90;99.90
23723;DHT22;12042;52.136;5.584;2022-09-09T12:42:55;17.80;99.90
23723;DHT22;12042;52.136;5.584;2022-09-09T12:45:23;17.80;99.90
23723;DHT22;12042;52.136;5.584;2022-09-09T12:47:54;17.80;99.90
23723;DHT22;12042;52.136;5.584;2022-09-09T12:50:27;17.70;99.90
23723;DHT22;12042;52.136;5.584;2022-09-09T12:52:58;17.90;99.90
23723;DHT22;12042;52.136;5.584;2022-09-09T12:55:28;18.00;99.90
23723;DHT22;12042;52.136;5.584;2022-09-09T12:57:56;18.20;99.90
23723;DHT22;12042;52.136;5.584;2022-09-09T13:00:24;18.30;99.90
23723;DHT22;12042;52.136;5.584;2022-09-09T13:02:59;18.30;99.90
23723;DHT22;12042;52.136;5.584;2022-09-09T13:05:28;18.20;99.90
23723;DHT22;12042;52.136;5.584;2022-09-09T13:08:08;18.20;99.90
23723;DHT22;12042;52.136;5.584;2022-09-09T13:10:41;18.30;99.90
23723;DHT22;12042;52.136;5.584;2022-09-09T13:13:29;18.30;99.90
23723;DHT22;12042;52.136;5.584;2022-09-09T13:15:58;18.50;99.90
23723;DHT22;12042;52.136;5.584;2022-09-09T13:18:28;18.60;99.90
23723;DHT22;12042;52.136;5.584;2022-09-09T13:20:54;18.50;99.90
23723;DHT22;12042;52.136;5.584;2022-09-09T13:23:21;18.50;99.90
23723;DHT22;12042;52.136;5.584;2022-09-09T13:25:55;18.30;99.90
23723;DHT22;12042;52.136;5.584;2022-09-09T13:28:23;18.30;99.90
23723;DHT22;12042;52.136;5.584;2022-09-09T13:33:31;18.20;99.90
23723;DHT22;12042;52.136;5.584;2022-09-09T13:38:30;18.30;99.90
23723;DHT22;12042;52.136;5.584;2022-09-09T13:41:07;18.30;99.90
23723;DHT22;12042;52.136;5.584;2022-09-09T13:43:44;18.30;99.90
23723;DHT22;12042;52.136;5.584;2022-09-09T13:46:31;18.40;99.90
23723;DHT22;12042;52.136;5.584;2022-09-09T13:49:02;18.40;99.90
23723;DHT22;12042;52.136;5.584;2022-09-09T13:54:05;18.50;99.90
23723;DHT22;12042;52.136;5.584;2022-09-09T13:56:32;18.60;99.90
23723;DHT22;12042;52.136;5.584;2022-09-09T13:58:58;18.50;99.90
23723;DHT22;12042;52.136;5.584;2022-09-09T14:01:24;18.60;99.90
23723;DHT22;12042;52.136;5.584;2022-09-09T14:03:49;18.70;99.90
23723;DHT22;12042;52.136;5.584;2022-09-09T14:06:16;18.60;99.90
23723;DHT22;12042;52.136;5.584;2022-09-09T14:08:42;18.60;99.90
23723;DHT22;12042;52.136;5.584;2022-09-09T14:11:12;18.60;99.90
23723;DHT22;12042;52.136;5.584;2022-09-09T14:13:38;18.70;99.90
23723;DHT22;12042;52.136;5.584;2022-09-09T14:16:04;18.70;99.90
23723;DHT22;12042;52.136;5.584;2022-09-09T14:18:30;18.60;99.90
23723;DHT22;12042;52.136;5.584;2022-09-09T14:20:55;18.70;99.90
23723;DHT22;12042;52.136;5.584;2022-09-09T14:23:22;18.70;99.90
23723;DHT22;12042;52.136;5.584;2022-09-09T14:25:48;18.80;99.90
23723;DHT22;12042;52.136;5.584;2022-09-09T14:28:14;18.90;99.90
23723;DHT22;12042;52.136;5.584;2022-09-09T14:30:41;18.90;99.90
23723;DHT22;12042;52.136;5.584;2022-09-09T14:33:09;18.90;99.90
23723;DHT22;12042;52.136;5.584;2022-09-09T14:35:35;19.00;99.90
23723;DHT22;12042;52.136;5.584;2022-09-09T14:38:03;19.10;99.90
23723;DHT22;12042;52.136;5.584;2022-09-09T14:40:28;19.10;99.90
23723;DHT22;12042;52.136;5.584;2022-09-09T14:42:54;19.10;99.90
23723;DHT22;12042;52.136;5.584;2022-09-09T14:45:22;19.10;99.90
23723;DHT22;12042;52.136;5.584;2022-09-09T14:47:50;19.10;99.90
23723;DHT22;12042;52.136;5.584;2022-09-09T14:50:17;19.00;99.90
23723;DHT22;12042;52.136;5.584;2022-09-09T14:52:43;19.10;99.90
23723;DHT22;12042;52.136;5.584;2022-09-09T14:55:09;19.10;99.90
23723;DHT22;12042;52.136;5.584;2022-09-09T14:57:36;19.20;99.90
23723;DHT22;12042;52.136;5.584;2022-09-09T15:00:03;19.20;99.90
23723;DHT22;12042;52.136;5.584;2022-09-09T15:02:29;19.30;99.90
23723;DHT22;12042;52.136;5.584;2022-09-09T15:04:55;19.20;99.90
23723;DHT22;12042;52.136;5.584;2022-09-09T15:07:23;19.20;99.90
23723;DHT22;12042;52.136;5.584;2022-09-09T15:09:49;19.10;99.90
23723;DHT22;12042;52.136;5.584;2022-09-09T15:12:15;19.10;99.90
23723;DHT22;12042;52.136;5.584;2022-09-09T15:14:44;19.10;99.90
23723;DHT22;12042;52.136;5.584;2022-09-09T15:17:10;19.10;99.90
23723;DHT22;12042;52.136;5.584;2022-09-09T15:19:37;19.00;99.90
23723;DHT22;12042;52.136;5.584;2022-09-09T15:22:04;18.90;99.90
23723;DHT22;12042;52.136;5.584;2022-09-09T15:24:31;18.80;99.90
23723;DHT22;12042;52.136;5.584;2022-09-09T15:26:57;18.70;99.90
23723;DHT22;12042;52.136;5.584;2022-09-09T15:29:23;18.60;99.90
23723;DHT22;12042;52.136;5.584;2022-09-09T15:31:49;18.60;99.90
23723;DHT22;12042;52.136;5.584;2022-09-09T15:34:14;18.80;99.90
23723;DHT22;12042;52.136;5.584;2022-09-09T15:36:42;18.90;99.90
23723;DHT22;12042;52.136;5.584;2022-09-09T15:39:10;18.90;99.90
23723;DHT22;12042;52.136;5.584;2022-09-09T15:41:38;18.90;99.90
23723;DHT22;12042;52.136;5.584;2022-09-09T15:44:04;19.10;99.90
23723;DHT22;12042;52.136;5.584;2022-09-09T15:46:36;19.30;99.90
23723;DHT22;12042;52.136;5.584;2022-09-09T15:49:12;19.80;99.90
23723;DHT22;12042;52.136;5.584;2022-09-09T15:51:42;20.10;99.90
23723;DHT22;12042;52.136;5.584;2022-09-09T15:54:10;20.20;99.90
23723;DHT22;12042;52.136;5.584;2022-09-09T15:56:37;20.20;99.90
23723;DHT22;12042;52.136;5.584;2022-09-09T15:59:03;20.10;99.90
23723;DHT22;12042;52.136;5.584;2022-09-09T16:01:30;20.10;99.90
23723;DHT22;12042;52.136;5.584;2022-09-09T16:03:57;19.90;99.90
23723;DHT22;12042;52.136;5.584;2022-09-09T16:06:24;19.70;99.90
23723;DHT22;12042;52.136;5.584;2022-09-09T16:08:52;19.60;99.90
23723;DHT22;12042;52.136;5.584;2022-09-09T16:11:21;19.50;99.90
23723;DHT22;12042;52.136;5.584;2022-09-09T16:13:49;19.40;99.90
23723;DHT22;12042;52.136;5.584;2022-09-09T16:16:18;19.40;99.90
23723;DHT22;12042;52.136;5.584;2022-09-09T16:18:50;19.50;99.90
23723;DHT22;12042;52.136;5.584;2022-09-09T16:21:19;19.50;99.90
23723;DHT22;12042;52.136;5.584;2022-09-09T16:23:45;19.70;99.90
23723;DHT22;12042;52.136;5.584;2022-09-09T16:26:13;19.90;99.90
23723;DHT22;12042;52.136;5.584;2022-09-09T16:28:39;20.10;99.90
23723;DHT22;12042;52.136;5.584;2022-09-09T16:31:15;20.30;99.90
23723;DHT22;12042;52.136;5.584;2022-09-09T16:33:41;20.40;99.90
23723;DHT22;12042;52.136;5.584;2022-09-09T16:36:12;20.40;99.90
23723;DHT22;12042;52.136;5.584;2022-09-09T16:38:39;20.20;99.90
23723;DHT22;12042;52.136;5.584;2022-09-09T16:41:06;20.00;99.90
23723;DHT22;12042;52.136;5.584;2022-09-09T16:43:35;19.80;99.90
23723;DHT22;12042;52.136;5.584;2022-09-09T16:46:03;19.70;99.90
23723;DHT22;12042;52.136;5.584;2022-09-09T16:48:33;19.60;99.90
23723;DHT22;12042;52.136;5.584;2022-09-09T16:51:06;19.50;99.90
23723;DHT22;12042;52.136;5.584;2022-09-09T16:53:33;19.40;99.90
23723;DHT22;12042;52.136;5.584;2022-09-09T16:56:04;19.30;99.90
23723;DHT22;12042;52.136;5.584;2022-09-09T16:58:30;19.30;99.90
23723;DHT22;12042;52.136;5.584;2022-09-09T17:00:59;19.20;99.90
23723;DHT22;12042;52.136;5.584;2022-09-09T17:03:25;19.10;99.90
23723;DHT22;12042;52.136;5.584;2022-09-09T17:05:51;19.10;99.90
23723;DHT22;12042;52.136;5.584;2022-09-09T17:08:16;19.00;99.90
23723;DHT22;12042;52.136;5.584;2022-09-09T17:10:42;19.00;99.90
23723;DHT22;12042;52.136;5.584;2022-09-09T17:13:08;19.00;99.90
23723;DHT22;12042;52.136;5.584;2022-09-09T17:15:40;18.90;99.90
23723;DHT22;12042;52.136;5.584;2022-09-09T17:18:08;18.90;99.90
23723;DHT22;12042;52.136;5.584;2022-09-09T17:20:43;18.90;99.90
23723;DHT22;12042;52.136;5.584;2022-09-09T17:23:10;18.90;99.90
23723;DHT22;12042;52.136;5.584;2022-09-09T17:25:36;18.90;99.90
23723;DHT22;12042;52.136;5.584;2022-09-09T17:28:02;18.90;99.90
23723;DHT22;12042;52.136;5.584;2022-09-09T17:30:35;18.90;99.90
23723;DHT22;12042;52.136;5.584;2022-09-09T17:33:03;18.90;99.90
23723;DHT22;12042;52.136;5.584;2022-09-09T17:35:29;18.90;99.90
23723;DHT22;12042;52.136;5.584;2022-09-09T17:37:55;18.80;99.90
23723;DHT22;12042;52.136;5.584;2022-09-09T17:40:21;18.80;99.90
23723;DHT22;12042;52.136;5.584;2022-09-09T17:42:47;18.70;99.90
23723;DHT22;12042;52.136;5.584;2022-09-09T17:45:14;18.70;99.90
23723;DHT22;12042;52.136;5.584;2022-09-09T17:47:40;18.60;99.90
23723;DHT22;12042;52.136;5.584;2022-09-09T17:50:08;18.50;99.90
23723;DHT22;12042;52.136;5.584;2022-09-09T17:52:35;18.50;99.90
23723;DHT22;12042;52.136;5.584;2022-09-09T17:55:01;18.50;99.90
23723;DHT22;12042;52.136;5.584;2022-09-09T17:57:26;18.50;99.90
23723;DHT22;12042;52.136;5.584;2022-09-09T17:59:53;18.50;99.90
23723;DHT22;12042;52.136;5.584;2022-09-09T18:02:18;18.50;99.90
23723;DHT22;12042;52.136;5.584;2022-09-09T18:04:44;18.50;99.90
23723;DHT22;12042;52.136;5.584;2022-09-09T18:07:09;18.50;99.90
23723;DHT22;12042;52.136;5.584;2022-09-09T18:09:35;18.60;99.90
23723;DHT22;12042;52.136;5.584;2022-09-09T18:12:03;18.60;99.90
23723;DHT22;12042;52.136;5.584;2022-09-09T18:14:30;18.60;99.90
23723;DHT22;12042;52.136;5.584;2022-09-09T18:16:57;18.60;99.90
23723;DHT22;12042;52.136;5.584;2022-09-09T18:19:26;18.50;99.90
23723;DHT22;12042;52.136;5.584;2022-09-09T18:21:53;18.50;99.90
23723;DHT22;12042;52.136;5.584;2022-09-09T18:24:20;18.50;99.90
23723;DHT22;12042;52.136;5.584;2022-09-09T18:26:47;18.40;99.90
23723;DHT22;12042;52.136;5.584;2022-09-09T18:29:16;18.30;99.90
23723;DHT22;12042;52.136;5.584;2022-09-09T18:31:42;18.30;99.90
23723;DHT22;12042;52.136;5.584;2022-09-09T18:34:10;18.30;99.90
23723;DHT22;12042;52.136;5.584;2022-09-09T18:36:46;18.30;99.90
23723;DHT22;12042;52.136;5.584;2022-09-09T18:39:13;18.20;99.90
23723;DHT22;12042;52.136;5.584;2022-09-09T18:41:46;18.30;99.90
23723;DHT22;12042;52.136;5.584;2022-09-09T18:44:17;18.20;99.90
23723;DHT22;12042;52.136;5.584;2022-09-09T18:46:44;18.20;99.90
23723;DHT22;12042;52.136;5.584;2022-09-09T18:49:10;18.20;99.90
23723;DHT22;12042;52.136;5.584;2022-09-09T18:51:38;18.20;99.90
23723;DHT22;12042;52.136;5.584;2022-09-09T18:54:26;18.10;99.90
23723;DHT22;12042;52.136;5.584;2022-09-09T18:56:54;18.20;99.90
23723;DHT22;12042;52.136;5.584;2022-09-09T18:59:21;18.20;99.90
23723;DHT22;12042;52.136;5.584;2022-09-09T19:01:49;18.10;99.90
23723;DHT22;12042;52.136;5.584;2022-09-09T19:04:15;18.10;99.90
23723;DHT22;12042;52.136;5.584;2022-09-09T19:06:44;18.00;99.90
23723;DHT22;12042;52.136;5.584;2022-09-09T19:09:12;17.90;99.90
23723;DHT22;12042;52.136;5.584;2022-09-09T19:11:38;17.80;99.90
23723;DHT22;12042;52.136;5.584;2022-09-09T19:14:05;17.70;99.90
23723;DHT22;12042;52.136;5.584;2022-09-09T19:16:33;17.60;99.90
23723;DHT22;12042;52.136;5.584;2022-09-09T19:21:34;17.50;99.90
23723;DHT22;12042;52.136;5.584;2022-09-09T19:24:04;17.50;99.90
23723;DHT22;12042;52.136;5.584;2022-09-09T19:26:36;17.40;99.90
23723;DHT22;12042;52.136;5.584;2022-09-09T19:29:13;17.40;99.90
23723;DHT22;12042;52.136;5.584;2022-09-09T19:31:39;17.40;99.90
23723;DHT22;12042;52.136;5.584;2022-09-09T19:34:05;17.50;99.90
23723;DHT22;12042;52.136;5.584;2022-09-09T19:36:31;17.40;99.90
23723;DHT22;12042;52.136;5.584;2022-09-09T19:38:57;17.40;99.90
23723;DHT22;12042;52.136;5.584;2022-09-09T19:41:25;17.40;99.90
23723;DHT22;12042;52.136;5.584;2022-09-09T19:43:54;17.40;99.90
23723;DHT22;12042;52.136;5.584;2022-09-09T19:46:22;17.40;99.90
23723;DHT22;12042;52.136;5.584;2022-09-09T19:48:47;17.40;99.90
23723;DHT22;12042;52.136;5.584;2022-09-09T19:51:16;17.40;99.90
23723;DHT22;12042;52.136;5.584;2022-09-09T19:53:45;17.40;99.90
23723;DHT22;12042;52.136;5.584;2022-09-09T19:56:11;17.30;99.90
23723;DHT22;12042;52.136;5.584;2022-09-09T19:58:38;17.30;99.90
23723;DHT22;12042;52.136;5.584;2022-09-09T20:01:12;17.30;99.90
23723;DHT22;12042;52.136;5.584;2022-09-09T20:03:39;17.30;99.90
23723;DHT22;12042;52.136;5.584;2022-09-09T20:06:07;17.30;99.90
23723;DHT22;12042;52.136;5.584;2022-09-09T20:08:33;17.30;99.90
23723;DHT22;12042;52.136;5.584;2022-09-09T20:10:59;17.20;99.90
23723;DHT22;12042;52.136;5.584;2022-09-09T20:13:27;17.20;99.90
23723;DHT22;12042;52.136;5.584;2022-09-09T20:16:01;17.10;99.90
23723;DHT22;12042;52.136;5.584;2022-09-09T20:18:29;17.10;99.90
23723;DHT22;12042;52.136;5.584;2022-09-09T20:21:01;17.10;99.90
23723;DHT22;12042;52.136;5.584;2022-09-09T20:23:28;17.00;99.90
23723;DHT22;12042;52.136;5.584;2022-09-09T20:25:54;17.00;99.90
23723;DHT22;12042;52.136;5.584;2022-09-09T20:28:20;17.00;99.90
23723;DHT22;12042;52.136;5.584;2022-09-09T20:30:49;16.90;99.90
23723;DHT22;12042;52.136;5.584;2022-09-09T20:33:17;16.90;99.90
23723;DHT22;12042;52.136;5.584;2022-09-09T20:35:44;17.00;99.90
23723;DHT22;12042;52.136;5.584;2022-09-09T20:38:10;16.90;99.90
23723;DHT22;12042;52.136;5.584;2022-09-09T20:40:36;16.90;99.90
23723;DHT22;12042;52.136;5.584;2022-09-09T20:43:03;16.90;99.90
23723;DHT22;12042;52.136;5.584;2022-09-09T20:45:35;16.90;99.90
23723;DHT22;12042;52.136;5.584;2022-09-09T20:48:03;16.90;99.90
23723;DHT22;12042;52.136;5.584;2022-09-09T20:50:29;16.90;99.90
23723;DHT22;12042;52.136;5.584;2022-09-09T20:52:55;16.90;99.90
23723;DHT22;12042;52.136;5.584;2022-09-09T20:55:20;16.90;99.90
23723;DHT22;12042;52.136;5.584;2022-09-09T20:57:46;16.90;99.90
23723;DHT22;12042;52.136;5.584;2022-09-09T21:00:12;16.90;99.90
23723;DHT22;12042;52.136;5.584;2022-09-09T21:02:39;16.80;99.90
23723;DHT22;12042;52.136;5.584;2022-09-09T21:05:05;16.80;99.90
23723;DHT22;12042;52.136;5.584;2022-09-09T21:07:31;16.80;99.90
23723;DHT22;12042;52.136;5.584;2022-09-09T21:09:57;16.80;99.90
23723;DHT22;12042;52.136;5.584;2022-09-09T21:12:23;16.80;99.90
23723;DHT22;12042;52.136;5.584;2022-09-09T21:14:49;16.70;99.90
